Time;durP1;ratioP1;P1;durP2;ratioP2;P2;SDS_P1;SDS_P2;PMS_P1;PMS_P2;Temp;Humidity;BMP_temperature;BMP_pressure;BME280_temperature;BME280_humidity;BME280_pressure;Samples;Min_cycle;Max_cycle;Signal;HPM_P1;HPM_P2
2023/08/23 00:00:13;;;;;;;4.37;4.17;;;;;;;;;;5055447;28;20524;-83
2023/08/23 00:02:39;;;;;;;4.67;4.27;;;;;;;;;;5058478;28;20451;-82
2023/08/23 00:05:05;;;;;;;3.30;3.20;;;;;;;;;;5049225;28;20456;-82
2023/08/23 00:07:31;;;;;;;3.90;3.77;;;;;;;;;;5058106;28;20789;-83
2023/08/23 00:09:57;;;;;;;7.03;4.07;;;;;;;;;;5051370;28;20438;-82
2023/08/23 00:12:23;;;;;;;4.03;3.73;;;;;;;;;;5059390;28;20505;-83
2023/08/23 00:14:49;;;;;;;3.97;3.77;;;;;;;;;;5054943;28;20527;-82
2023/08/23 00:17:15;;;;;;;4.53;3.87;;;;;;;;;;5059371;28;20925;-82
2023/08/23 00:19:41;;;;;;;3.00;2.90;;;;;;;;;;5053514;28;20483;-82
2023/08/23 00:22:07;;;;;;;3.50;3.40;;;;;;;;;;5054998;28;20448;-82
2023/08/23 00:24:33;;;;;;;3.50;3.30;;;;;;;;;;5058914;28;20475;-82
2023/08/23 00:26:59;;;;;;;3.80;3.47;;;;;;;;;;5058920;28;20477;-82
2023/08/23 00:29:25;;;;;;;3.67;3.43;;;;;;;;;;5057312;28;20429;-82
2023/08/23 00:31:51;;;;;;;4.00;3.80;;;;;;;;;;5056914;28;20630;-82
2023/08/23 00:34:17;;;;;;;3.73;3.53;;;;;;;;;;5057903;28;20432;-82
2023/08/23 00:36:43;;;;;;;4.53;4.13;;;;;;;;;;5058966;28;20444;-84
2023/08/23 00:39:09;;;;;;;3.30;3.00;;;;;;;;;;5055033;28;20422;-84
2023/08/23 00:41:37;;;;;;;3.80;3.50;;;;;;;;;;5054174;28;20495;-84
2023/08/23 00:44:04;;;;;;;3.60;3.40;;;;;;;;;;5057597;28;20417;-84
2023/08/23 00:46:30;;;;;;;3.83;3.40;;;;;;;;;;5056405;28;20505;-84
2023/08/23 00:48:56;;;;;;;6.83;4.43;;;;;;;;;;5084409;28;20507;-83
2023/08/23 00:51:22;;;;;;;3.87;3.43;;;;;;;;;;5047498;28;20490;-82
2023/08/23 00:53:48;;;;;;;4.03;3.83;;;;;;;;;;5050200;28;20559;-83
2023/08/23 00:56:14;;;;;;;3.90;3.70;;;;;;;;;;5055793;28;20440;-84
2023/08/23 00:58:40;;;;;;;5.40;3.30;;;;;;;;;;5051375;28;20941;-84
2023/08/23 01:01:06;;;;;;;4.53;3.60;;;;;;;;;;5050893;28;20531;-82
2023/08/23 01:03:33;;;;;;;3.90;3.83;;;;;;;;;;5056372;28;20419;-83
2023/08/23 01:05:59;;;;;;;3.60;3.50;;;;;;;;;;5055244;28;20488;-82
2023/08/23 01:08:43;;;;;;;3.87;3.53;;;;;;;;;;5057954;28;20924;-83
2023/08/23 01:11:13;;;;;;;3.90;3.70;;;;;;;;;;5049658;28;20483;-82
2023/08/23 01:14:02;;;;;;;3.80;3.70;;;;;;;;;;5053724;28;21451;-83
2023/08/23 01:16:28;;;;;;;3.93;3.60;;;;;;;;;;5047020;28;20453;-82
2023/08/23 01:18:55;;;;;;;4.80;4.50;;;;;;;;;;5049935;28;20425;-83
2023/08/23 01:21:25;;;;;;;3.73;3.53;;;;;;;;;;5056088;28;20435;-83
2023/08/23 01:23:52;;;;;;;3.93;3.80;;;;;;;;;;5052520;28;20421;-83
2023/08/23 01:26:18;;;;;;;4.00;3.80;;;;;;;;;;5057496;28;20445;-83
2023/08/23 01:28:47;;;;;;;4.03;3.27;;;;;;;;;;5055858;28;20421;-83
2023/08/23 01:31:14;;;;;;;4.43;3.60;;;;;;;;;;5052213;28;20464;-83
2023/08/23 01:33:42;;;;;;;5.10;4.70;;;;;;;;;;5060526;28;20468;-82
2023/08/23 01:36:14;;;;;;;4.90;4.50;;;;;;;;;;5066462;28;20854;-83
2023/08/23 01:38:40;;;;;;;4.07;3.80;;;;;;;;;;5065834;28;20430;-82
2023/08/23 01:41:06;;;;;;;3.17;2.97;;;;;;;;;;5054761;28;20438;-83
2023/08/23 01:43:32;;;;;;;4.40;4.00;;;;;;;;;;5053302;28;20417;-83
2023/08/23 01:45:58;;;;;;;5.23;3.83;;;;;;;;;;5053418;28;20472;-83
2023/08/23 01:48:24;;;;;;;5.80;3.53;;;;;;;;;;5054364;28;20444;-81
2023/08/23 01:50:52;;;;;;;4.20;4.00;;;;;;;;;;5053641;28;20452;-82
2023/08/23 01:53:18;;;;;;;5.43;3.90;;;;;;;;;;5053231;28;21099;-83
2023/08/23 01:55:44;;;;;;;4.57;4.37;;;;;;;;;;5056273;28;20494;-83
2023/08/23 01:58:10;;;;;;;4.07;3.83;;;;;;;;;;5054886;28;20454;-81
2023/08/23 02:00:36;;;;;;;6.07;4.17;;;;;;;;;;5050267;28;20500;-82
2023/08/23 02:03:02;;;;;;;4.30;4.00;;;;;;;;;;5056704;28;21000;-80
2023/08/23 02:05:31;;;;;;;3.30;3.10;;;;;;;;;;5066434;28;20463;-83
2023/08/23 02:07:57;;;;;;;6.20;4.30;;;;;;;;;;5059635;28;20417;-83
2023/08/23 02:10:23;;;;;;;4.37;4.07;;;;;;;;;;5068740;28;20456;-82
2023/08/23 02:12:49;;;;;;;4.60;4.10;;;;;;;;;;5053295;28;20464;-81
2023/08/23 02:15:15;;;;;;;4.60;4.20;;;;;;;;;;5052753;28;20499;-83
2023/08/23 02:17:41;;;;;;;4.17;3.60;;;;;;;;;;5056171;28;20453;-81
2023/08/23 02:20:07;;;;;;;4.00;3.70;;;;;;;;;;5061277;28;20448;-81
2023/08/23 02:22:33;;;;;;;4.30;4.03;;;;;;;;;;5064327;28;20441;-82
2023/08/23 02:24:59;;;;;;;4.10;3.80;;;;;;;;;;5062837;28;20429;-82
2023/08/23 02:27:25;;;;;;;4.20;4.00;;;;;;;;;;5056796;28;20521;-82
2023/08/23 02:29:51;;;;;;;3.87;3.63;;;;;;;;;;5062757;28;20940;-82
2023/08/23 02:32:17;;;;;;;5.07;3.47;;;;;;;;;;5064419;28;20890;-83
2023/08/23 02:34:42;;;;;;;4.77;4.60;;;;;;;;;;5057525;28;20440;-83
2023/08/23 02:37:08;;;;;;;6.77;5.50;;;;;;;;;;5057202;28;20444;-83
2023/08/23 02:39:34;;;;;;;5.07;4.70;;;;;;;;;;5058658;28;20460;-83
2023/08/23 02:42:00;;;;;;;4.03;3.50;;;;;;;;;;5056754;28;20532;-84
2023/08/23 02:44:26;;;;;;;10.07;4.20;;;;;;;;;;5058162;28;20483;-82
2023/08/23 02:46:52;;;;;;;4.80;4.50;;;;;;;;;;5058106;28;21134;-83
2023/08/23 02:49:18;;;;;;;8.13;4.10;;;;;;;;;;5061190;28;20422;-82
2023/08/23 02:51:44;;;;;;;3.80;3.60;;;;;;;;;;5059253;28;20449;-82
2023/08/23 02:54:10;;;;;;;11.33;8.60;;;;;;;;;;5060904;28;20469;-82
2023/08/23 02:56:36;;;;;;;4.47;4.20;;;;;;;;;;5053548;28;20441;-82
2023/08/23 02:59:02;;;;;;;3.97;3.70;;;;;;;;;;5056511;28;20453;-82
2023/08/23 03:01:28;;;;;;;7.63;4.40;;;;;;;;;;5067193;28;20528;-82
2023/08/23 03:03:54;;;;;;;4.03;3.80;;;;;;;;;;5068015;28;20439;-84
2023/08/23 03:06:21;;;;;;;3.80;3.60;;;;;;;;;;5065163;28;20444;-83
2023/08/23 03:08:47;;;;;;;3.97;3.77;;;;;;;;;;5077722;28;20444;-83
2023/08/23 03:11:13;;;;;;;4.70;4.47;;;;;;;;;;5066427;28;20436;-83
2023/08/23 03:13:39;;;;;;;5.67;5.27;;;;;;;;;;5056911;28;20477;-83
2023/08/23 03:16:05;;;;;;;4.90;4.40;;;;;;;;;;5055570;28;20453;-83
2023/08/23 03:18:31;;;;;;;5.17;4.80;;;;;;;;;;5056286;28;21191;-84
2023/08/23 03:20:57;;;;;;;5.33;4.77;;;;;;;;;;5063391;28;20494;-84
2023/08/23 03:23:23;;;;;;;6.23;5.63;;;;;;;;;;5063155;28;20428;-84
2023/08/23 03:25:49;;;;;;;4.33;4.13;;;;;;;;;;5056912;28;20452;-82
2023/08/23 03:28:15;;;;;;;4.60;4.40;;;;;;;;;;5066757;28;20437;-83
2023/08/23 03:30:42;;;;;;;4.50;4.20;;;;;;;;;;5053155;28;20449;-83
2023/08/23 03:33:08;;;;;;;4.43;4.23;;;;;;;;;;5057233;28;20464;-83
2023/08/23 03:35:34;;;;;;;4.20;3.90;;;;;;;;;;5057297;28;20443;-84
2023/08/23 03:38:00;;;;;;;4.80;4.50;;;;;;;;;;5056605;28;20494;-84
2023/08/23 03:40:26;;;;;;;7.07;4.93;;;;;;;;;;5051714;28;20463;-83
2023/08/23 03:42:52;;;;;;;4.97;4.57;;;;;;;;;;5062025;28;20448;-83
2023/08/23 03:45:18;;;;;;;5.53;4.87;;;;;;;;;;5062678;28;20475;-83
2023/08/23 03:47:45;;;;;;;6.03;5.47;;;;;;;;;;5071279;28;20424;-82
2023/08/23 03:50:11;;;;;;;5.97;5.17;;;;;;;;;;5065556;28;20452;-84
2023/08/23 03:52:37;;;;;;;4.97;4.57;;;;;;;;;;5058508;28;20580;-83
2023/08/23 03:55:03;;;;;;;6.37;5.97;;;;;;;;;;5053362;28;20594;-82
2023/08/23 03:57:29;;;;;;;5.90;5.40;;;;;;;;;;5062812;28;20509;-82
2023/08/23 03:59:55;;;;;;;7.73;6.73;;;;;;;;;;5053610;28;20918;-83
2023/08/23 04:02:21;;;;;;;5.17;4.77;;;;;;;;;;5049362;28;21002;-83
2023/08/23 04:04:47;;;;;;;5.73;4.90;;;;;;;;;;5050850;28;20456;-83
2023/08/23 04:07:14;;;;;;;5.10;4.53;;;;;;;;;;5054646;28;20956;-82
2023/08/23 04:09:40;;;;;;;5.50;4.87;;;;;;;;;;5059732;28;20457;-81
2023/08/23 04:12:07;;;;;;;4.90;4.40;;;;;;;;;;5059562;28;20476;-83
2023/08/23 04:14:33;;;;;;;4.60;4.40;;;;;;;;;;5058065;28;20437;-82
2023/08/23 04:16:59;;;;;;;4.57;4.27;;;;;;;;;;5055348;28;20432;-83
2023/08/23 04:19:25;;;;;;;4.10;3.90;;;;;;;;;;5068266;28;21332;-82
2023/08/23 04:21:51;;;;;;;5.10;4.80;;;;;;;;;;5052467;28;20448;-83
2023/08/23 04:24:17;;;;;;;8.07;7.20;;;;;;;;;;5049266;28;20456;-83
2023/08/23 04:26:43;;;;;;;6.47;5.47;;;;;;;;;;5057834;28;20938;-83
2023/08/23 04:29:10;;;;;;;5.80;4.97;;;;;;;;;;5056494;28;20908;-83
2023/08/23 04:31:35;;;;;;;4.90;4.60;;;;;;;;;;5064198;28;20444;-83
2023/08/23 04:34:03;;;;;;;6.63;6.03;;;;;;;;;;5049383;28;21014;-82
2023/08/23 04:36:29;;;;;;;4.97;4.50;;;;;;;;;;5057397;28;20861;-82
2023/08/23 04:38:55;;;;;;;5.47;5.13;;;;;;;;;;5051948;28;20436;-82
2023/08/23 04:41:21;;;;;;;5.80;5.37;;;;;;;;;;5053925;28;20429;-83
2023/08/23 04:43:47;;;;;;;7.80;7.10;;;;;;;;;;5052399;28;20489;-82
2023/08/23 04:46:13;;;;;;;5.97;5.70;;;;;;;;;;5055038;28;20408;-82
2023/08/23 04:48:39;;;;;;;6.00;5.57;;;;;;;;;;5056514;28;20838;-81
2023/08/23 04:51:08;;;;;;;7.27;6.77;;;;;;;;;;5061146;28;20461;-83
2023/08/23 04:53:34;;;;;;;6.33;6.00;;;;;;;;;;5064503;28;20468;-82
2023/08/23 04:56:00;;;;;;;8.43;6.20;;;;;;;;;;5064990;28;20602;-83
2023/08/23 04:58:32;;;;;;;6.57;6.07;;;;;;;;;;5059028;28;20995;-83
2023/08/23 05:00:59;;;;;;;5.60;5.10;;;;;;;;;;5056082;28;20453;-83
2023/08/23 05:03:26;;;;;;;5.00;4.70;;;;;;;;;;5054020;28;20434;-83
2023/08/23 05:05:52;;;;;;;6.67;6.17;;;;;;;;;;5052413;28;20421;-83
2023/08/23 05:08:21;;;;;;;6.30;5.90;;;;;;;;;;5059379;28;20524;-84
2023/08/23 05:10:53;;;;;;;6.83;6.30;;;;;;;;;;5057880;28;20424;-83
2023/08/23 05:13:19;;;;;;;6.10;5.70;;;;;;;;;;5053337;28;20556;-83
2023/08/23 05:15:50;;;;;;;6.27;5.87;;;;;;;;;;5055374;28;20435;-83
2023/08/23 05:18:16;;;;;;;5.40;5.07;;;;;;;;;;5049292;28;20436;-83
2023/08/23 05:20:42;;;;;;;5.57;5.20;;;;;;;;;;5051962;28;20870;-82
2023/08/23 05:23:08;;;;;;;5.17;4.87;;;;;;;;;;5051242;28;20507;-82
2023/08/23 05:25:34;;;;;;;6.20;5.70;;;;;;;;;;5063611;28;20468;-83
2023/08/23 05:28:00;;;;;;;8.37;6.10;;;;;;;;;;5055185;28;20449;-83
2023/08/23 05:30:26;;;;;;;5.73;5.53;;;;;;;;;;5062257;28;20448;-84
2023/08/23 05:32:52;;;;;;;5.73;5.43;;;;;;;;;;5073574;28;20511;-84
2023/08/23 05:35:18;;;;;;;7.00;6.30;;;;;;;;;;5064758;28;21200;-84
2023/08/23 05:37:44;;;;;;;5.63;5.30;;;;;;;;;;5059433;28;20453;-83
2023/08/23 05:40:10;;;;;;;5.57;5.33;;;;;;;;;;5055700;28;20470;-83
2023/08/23 05:42:36;;;;;;;6.60;6.10;;;;;;;;;;5069311;28;20475;-83
2023/08/23 05:45:02;;;;;;;6.63;6.13;;;;;;;;;;5066270;28;20469;-84
2023/08/23 05:47:29;;;;;;;5.87;5.47;;;;;;;;;;5068500;28;20433;-84
2023/08/23 05:49:55;;;;;;;7.13;6.60;;;;;;;;;;5071248;28;20471;-85
2023/08/23 05:52:21;;;;;;;16.00;6.97;;;;;;;;;;5067011;28;20457;-84
2023/08/23 05:54:47;;;;;;;7.83;6.43;;;;;;;;;;5066411;28;20971;-83
2023/08/23 05:57:13;;;;;;;6.10;5.50;;;;;;;;;;5064260;28;20416;-85
2023/08/23 05:59:39;;;;;;;8.40;5.80;;;;;;;;;;5063418;28;20533;-83
2023/08/23 06:02:05;;;;;;;11.50;7.47;;;;;;;;;;5062116;28;20441;-85
2023/08/23 06:04:32;;;;;;;9.70;6.43;;;;;;;;;;5061971;28;20413;-83
2023/08/23 06:06:58;;;;;;;17.57;7.20;;;;;;;;;;5063826;28;20801;-81
2023/08/23 06:09:24;;;;;;;9.60;8.60;;;;;;;;;;5062061;28;20416;-83
2023/08/23 06:11:50;;;;;;;8.27;7.30;;;;;;;;;;5050122;28;20525;-82
2023/08/23 06:14:20;;;;;;;7.03;5.90;;;;;;;;;;5069596;28;20456;-84
2023/08/23 06:16:46;;;;;;;7.10;6.40;;;;;;;;;;5063420;28;20409;-83
2023/08/23 06:19:12;;;;;;;10.23;6.90;;;;;;;;;;5052200;28;20456;-84
2023/08/23 06:21:38;;;;;;;8.07;7.07;;;;;;;;;;5063213;28;20409;-83
2023/08/23 06:24:04;;;;;;;9.77;7.53;;;;;;;;;;5046235;28;20432;-83
2023/08/23 06:26:30;;;;;;;8.57;6.90;;;;;;;;;;5047508;28;20397;-82
2023/08/23 06:28:56;;;;;;;8.40;6.77;;;;;;;;;;5061143;28;20489;-83
2023/08/23 06:31:22;;;;;;;7.30;6.67;;;;;;;;;;5052838;28;20433;-83
2023/08/23 06:33:48;;;;;;;11.50;6.97;;;;;;;;;;5058183;28;20530;-85
2023/08/23 06:36:14;;;;;;;7.50;6.20;;;;;;;;;;5067569;28;20538;-84
2023/08/23 06:38:43;;;;;;;8.90;6.10;;;;;;;;;;5064596;28;20512;-81
2023/08/23 06:41:09;;;;;;;11.57;7.33;;;;;;;;;;5069624;28;20450;-84
2023/08/23 06:43:35;;;;;;;8.03;7.33;;;;;;;;;;5062405;28;20436;-83
2023/08/23 06:46:01;;;;;;;7.10;6.60;;;;;;;;;;5084983;28;20443;-82
2023/08/23 06:48:27;;;;;;;14.03;7.87;;;;;;;;;;5055201;28;20429;-84
2023/08/23 06:50:54;;;;;;;7.70;6.97;;;;;;;;;;5065554;28;20445;-82
2023/08/23 06:53:20;;;;;;;8.10;7.30;;;;;;;;;;5056974;28;20546;-85
2023/08/23 06:55:46;;;;;;;9.10;8.20;;;;;;;;;;5065146;28;20424;-84
2023/08/23 06:58:12;;;;;;;7.87;7.07;;;;;;;;;;5056155;28;20987;-85
2023/08/23 07:00:38;;;;;;;8.70;7.33;;;;;;;;;;5053428;28;20551;-83
2023/08/23 07:03:04;;;;;;;8.50;7.70;;;;;;;;;;5057912;28;21023;-83
2023/08/23 07:05:33;;;;;;;9.43;6.80;;;;;;;;;;5058845;28;20498;-82
2023/08/23 07:07:59;;;;;;;7.03;6.53;;;;;;;;;;5054302;28;20459;-84
2023/08/23 07:10:25;;;;;;;7.23;6.50;;;;;;;;;;5058824;28;20500;-84
2023/08/23 07:12:51;;;;;;;8.03;7.20;;;;;;;;;;5058621;28;20469;-85
2023/08/23 07:15:17;;;;;;;7.80;6.50;;;;;;;;;;5051538;28;20418;-84
2023/08/23 07:17:43;;;;;;;9.60;7.40;;;;;;;;;;5059135;28;20458;-86
2023/08/23 07:20:12;;;;;;;8.90;8.20;;;;;;;;;;5069733;28;20772;-83
2023/08/23 07:22:37;;;;;;;8.67;7.20;;;;;;;;;;5062680;28;20432;-84
2023/08/23 07:25:04;;;;;;;9.23;8.50;;;;;;;;;;5064044;28;20531;-83
2023/08/23 07:27:30;;;;;;;10.90;8.67;;;;;;;;;;5062691;28;20436;-81
2023/08/23 07:29:56;;;;;;;9.97;9.10;;;;;;;;;;5065577;28;20457;-82
2023/08/23 07:32:22;;;;;;;9.13;8.43;;;;;;;;;;5060175;28;20477;-84
2023/08/23 07:34:51;;;;;;;9.57;8.77;;;;;;;;;;5089953;27;20445;-84
2023/08/23 07:37:17;;;;;;;9.60;8.67;;;;;;;;;;5052990;28;20516;-84
2023/08/23 07:39:44;;;;;;;7.43;6.97;;;;;;;;;;5074047;28;20574;-85
2023/08/23 07:42:10;;;;;;;8.07;7.47;;;;;;;;;;5066005;28;20638;-84
2023/08/23 07:44:39;;;;;;;8.50;7.80;;;;;;;;;;5075243;28;20452;-83
2023/08/23 07:47:05;;;;;;;10.90;9.37;;;;;;;;;;5062843;28;20508;-85
2023/08/23 07:49:33;;;;;;;9.80;8.80;;;;;;;;;;5059015;28;20448;-83
2023/08/23 07:51:59;;;;;;;9.77;9.17;;;;;;;;;;5070057;28;20486;-86
2023/08/23 07:54:25;;;;;;;11.07;9.97;;;;;;;;;;5069242;28;20417;-82
2023/08/23 07:56:51;;;;;;;10.57;9.47;;;;;;;;;;5052848;28;20560;-85
2023/08/23 07:59:17;;;;;;;10.50;9.50;;;;;;;;;;5068667;28;20401;-86
2023/08/23 08:01:43;;;;;;;11.50;10.40;;;;;;;;;;5072529;28;20835;-85
2023/08/23 08:04:09;;;;;;;10.20;9.17;;;;;;;;;;5067998;28;20473;-84
2023/08/23 08:06:35;;;;;;;11.40;10.20;;;;;;;;;;5059048;28;20518;-83
2023/08/23 08:09:01;;;;;;;9.77;9.03;;;;;;;;;;5071698;28;20478;-89
2023/08/23 08:11:27;;;;;;;9.77;8.93;;;;;;;;;;5072471;28;20437;-88
2023/08/23 08:13:53;;;;;;;8.80;8.10;;;;;;;;;;5098644;28;20461;-90
2023/08/23 08:16:19;;;;;;;9.60;8.90;;;;;;;;;;5083716;28;20460;-90
2023/08/23 08:18:48;;;;;;;9.43;8.83;;;;;;;;;;5087805;28;20448;-89
2023/08/23 08:21:14;;;;;;;10.53;9.63;;;;;;;;;;5064166;28;20453;-84
2023/08/23 08:23:40;;;;;;;10.20;9.30;;;;;;;;;;5058016;28;20469;-82
2023/08/23 08:26:06;;;;;;;10.00;9.00;;;;;;;;;;5043644;28;21282;-84
2023/08/23 08:28:32;;;;;;;9.17;7.57;;;;;;;;;;5067614;28;20440;-84
2023/08/23 08:30:58;;;;;;;7.50;7.00;;;;;;;;;;5054298;28;20934;-81
2023/08/23 08:33:24;;;;;;;7.77;6.77;;;;;;;;;;5058138;28;20464;-79
2023/08/23 08:35:50;;;;;;;7.90;7.20;;;;;;;;;;5056209;28;20531;-82
2023/08/23 08:38:16;;;;;;;7.33;6.60;;;;;;;;;;5050731;28;20462;-82
2023/08/23 08:40:43;;;;;;;7.37;6.60;;;;;;;;;;5060027;28;20521;-82
2023/08/23 08:43:09;;;;;;;7.27;6.53;;;;;;;;;;5056526;28;20440;-82
2023/08/23 08:45:35;;;;;;;7.70;7.03;;;;;;;;;;5046455;28;20442;-82
2023/08/23 08:48:01;;;;;;;8.03;7.40;;;;;;;;;;5056176;28;20440;-81
2023/08/23 08:50:29;;;;;;;6.40;6.10;;;;;;;;;;5045294;28;20434;-81
2023/08/23 08:52:55;;;;;;;5.60;5.10;;;;;;;;;;5048440;28;20468;-81
2023/08/23 08:55:22;;;;;;;6.20;5.70;;;;;;;;;;5066168;28;20495;-80
2023/08/23 08:57:52;;;;;;;6.87;5.33;;;;;;;;;;5057594;28;20441;-81
2023/08/23 09:00:22;;;;;;;5.37;5.13;;;;;;;;;;5050533;28;20544;-80
2023/08/23 09:02:50;;;;;;;6.00;5.60;;;;;;;;;;5046663;28;20502;-80
2023/08/23 09:05:17;;;;;;;6.93;6.10;;;;;;;;;;5043784;28;20476;-80
2023/08/23 09:07:43;;;;;;;6.27;5.77;;;;;;;;;;5042703;28;20455;-79
2023/08/23 09:10:10;;;;;;;6.10;5.70;;;;;;;;;;5040025;28;21034;-80
2023/08/23 09:12:36;;;;;;;6.77;5.70;;;;;;;;;;5051498;28;20501;-79
2023/08/23 09:15:04;;;;;;;5.27;4.97;;;;;;;;;;5042059;28;20438;-80
2023/08/23 09:17:33;;;;;;;7.57;5.10;;;;;;;;;;5052302;28;20448;-82
2023/08/23 09:19:59;;;;;;;4.07;3.77;;;;;;;;;;5045514;28;20443;-82
2023/08/23 09:22:25;;;;;;;5.40;5.20;;;;;;;;;;5047903;28;20478;-83
2023/08/23 09:24:51;;;;;;;4.80;4.40;;;;;;;;;;5045135;28;20440;-82
2023/08/23 09:27:17;;;;;;;4.33;4.03;;;;;;;;;;5044203;28;21293;-81
2023/08/23 09:29:46;;;;;;;4.40;4.03;;;;;;;;;;5053491;28;20802;-81
2023/08/23 09:32:12;;;;;;;4.00;3.87;;;;;;;;;;5055766;28;20527;-81
2023/08/23 09:34:38;;;;;;;3.87;3.67;;;;;;;;;;5043323;28;20429;-77
2023/08/23 09:37:07;;;;;;;3.70;3.50;;;;;;;;;;5054283;28;20429;-82
2023/08/23 09:39:33;;;;;;;5.70;5.33;;;;;;;;;;5044856;28;20437;-80
2023/08/23 09:42:03;;;;;;;3.30;3.20;;;;;;;;;;5050332;28;20520;-81
2023/08/23 09:44:30;;;;;;;4.47;4.07;;;;;;;;;;5045389;28;20520;-82
2023/08/23 09:47:00;;;;;;;3.30;3.10;;;;;;;;;;5048446;28;20868;-85
2023/08/23 09:49:34;;;;;;;4.13;3.80;;;;;;;;;;5044145;28;20445;-84
2023/08/23 09:52:01;;;;;;;4.10;3.90;;;;;;;;;;5049891;28;20603;-83
2023/08/23 09:54:32;;;;;;;4.27;3.37;;;;;;;;;;5042243;28;21042;-84
2023/08/23 09:56:59;;;;;;;4.40;4.10;;;;;;;;;;5045401;28;20951;-82
2023/08/23 09:59:25;;;;;;;5.93;5.43;;;;;;;;;;5046098;28;20600;-82
2023/08/23 10:01:51;;;;;;;4.87;4.67;;;;;;;;;;5048954;28;20448;-81
2023/08/23 10:04:18;;;;;;;4.03;3.73;;;;;;;;;;5044367;28;20975;-82
2023/08/23 10:06:45;;;;;;;3.60;3.50;;;;;;;;;;5050646;28;20445;-83
2023/08/23 10:09:12;;;;;;;4.07;3.70;;;;;;;;;;5047287;28;20445;-83
2023/08/23 10:11:39;;;;;;;4.10;3.87;;;;;;;;;;5048136;28;20479;-83
2023/08/23 10:14:06;;;;;;;3.50;3.40;;;;;;;;;;5050116;28;20534;-82
2023/08/23 10:16:33;;;;;;;3.67;3.57;;;;;;;;;;5043243;28;20464;-81
2023/08/23 10:18:59;;;;;;;3.70;3.50;;;;;;;;;;5055047;28;21039;-81
2023/08/23 10:21:28;;;;;;;3.97;3.67;;;;;;;;;;5055055;28;21351;-81
2023/08/23 10:23:54;;;;;;;3.27;3.17;;;;;;;;;;5060624;28;20457;-84
2023/08/23 10:26:21;;;;;;;3.57;3.47;;;;;;;;;;5060608;28;20471;-83
2023/08/23 10:28:52;;;;;;;4.37;4.07;;;;;;;;;;5070515;28;20475;-86
2023/08/23 10:31:27;;;;;;;4.40;4.07;;;;;;;;;;5054831;28;20468;-84
2023/08/23 10:33:54;;;;;;;4.70;4.17;;;;;;;;;;5070171;28;20535;-84
2023/08/23 10:36:30;;;;;;;3.43;3.33;;;;;;;;;;5073368;28;20441;-84
2023/08/23 10:38:57;;;;;;;5.47;4.27;;;;;;;;;;5073699;28;20456;-84
2023/08/23 10:41:23;;;;;;;4.47;4.27;;;;;;;;;;5063759;28;20464;-87
2023/08/23 10:43:50;;;;;;;5.13;4.80;;;;;;;;;;5074391;28;20440;-84
2023/08/23 10:46:20;;;;;;;4.77;4.37;;;;;;;;;;5066905;28;20452;-84
2023/08/23 10:48:46;;;;;;;4.00;3.80;;;;;;;;;;5077373;28;20452;-86
2023/08/23 10:51:12;;;;;;;4.53;4.20;;;;;;;;;;5080518;28;20454;-82
2023/08/23 10:53:40;;;;;;;5.40;3.70;;;;;;;;;;5074602;28;20956;-86
2023/08/23 10:56:10;;;;;;;3.80;3.60;;;;;;;;;;5082210;28;20943;-87
2023/08/23 10:58:36;;;;;;;3.77;3.57;;;;;;;;;;5059412;28;20453;-84
2023/08/23 11:01:03;;;;;;;3.47;3.17;;;;;;;;;;5055629;28;20468;-84
2023/08/23 11:03:29;;;;;;;3.40;3.20;;;;;;;;;;5061174;28;20455;-81
2023/08/23 11:05:55;;;;;;;3.40;3.20;;;;;;;;;;5064974;28;20460;-84
2023/08/23 11:08:22;;;;;;;4.40;4.10;;;;;;;;;;5074428;28;20527;-86
2023/08/23 11:10:48;;;;;;;6.53;4.30;;;;;;;;;;5065154;28;20479;-82
2023/08/23 11:13:14;;;;;;;4.30;4.00;;;;;;;;;;5066101;28;21185;-84
2023/08/23 11:15:42;;;;;;;4.57;4.30;;;;;;;;;;5065368;28;20443;-86
2023/08/23 11:18:09;;;;;;;3.87;3.70;;;;;;;;;;5064372;28;20471;-85
2023/08/23 11:20:35;;;;;;;4.50;4.30;;;;;;;;;;5070551;28;20444;-84
2023/08/23 11:23:01;;;;;;;4.67;4.47;;;;;;;;;;5070721;28;20450;-86
2023/08/23 11:25:27;;;;;;;4.20;4.00;;;;;;;;;;5087107;28;20451;-84
2023/08/23 11:27:53;;;;;;;3.93;3.73;;;;;;;;;;5074016;28;20459;-86
2023/08/23 11:30:20;;;;;;;4.20;3.80;;;;;;;;;;5092207;28;20439;-81
2023/08/23 11:32:47;;;;;;;5.03;4.53;;;;;;;;;;5069639;28;20501;-87
2023/08/23 11:35:13;;;;;;;5.30;5.00;;;;;;;;;;5085234;28;20444;-84
2023/08/23 11:37:39;;;;;;;5.70;5.07;;;;;;;;;;5066246;28;20544;-87
2023/08/23 11:40:10;;;;;;;5.07;4.77;;;;;;;;;;5070381;28;20501;-85
2023/08/23 11:42:37;;;;;;;5.77;5.27;;;;;;;;;;5072062;28;20444;-87
2023/08/23 11:45:06;;;;;;;4.77;4.47;;;;;;;;;;5072115;28;20453;-86
2023/08/23 11:47:34;;;;;;;4.23;4.00;;;;;;;;;;5066795;28;20683;-86
2023/08/23 11:50:05;;;;;;;4.57;4.27;;;;;;;;;;5074118;28;20448;-85
2023/08/23 11:52:32;;;;;;;4.13;3.93;;;;;;;;;;5074808;28;20553;-86
2023/08/23 11:54:59;;;;;;;4.10;3.90;;;;;;;;;;5067426;28;20440;-86
2023/08/23 11:57:25;;;;;;;5.03;4.73;;;;;;;;;;5088182;28;20512;-87
2023/08/23 11:59:51;;;;;;;4.97;4.70;;;;;;;;;;5069240;28;20834;-87
2023/08/23 12:02:17;;;;;;;3.87;3.57;;;;;;;;;;5073759;28;20489;-86
2023/08/23 12:04:44;;;;;;;5.03;4.73;;;;;;;;;;5058751;28;21008;-85
2023/08/23 12:07:10;;;;;;;4.20;3.80;;;;;;;;;;5071808;28;20672;-86
2023/08/23 12:09:39;;;;;;;3.87;3.63;;;;;;;;;;5102166;28;20440;-86
2023/08/23 12:12:05;;;;;;;7.87;4.30;;;;;;;;;;5071527;28;20465;-86
2023/08/23 12:14:31;;;;;;;4.70;3.50;;;;;;;;;;5065481;28;20456;-84
2023/08/23 12:16:57;;;;;;;3.83;3.67;;;;;;;;;;5071257;28;20459;-87
2023/08/23 12:19:23;;;;;;;6.90;4.40;;;;;;;;;;5064306;28;20447;-86
2023/08/23 12:21:50;;;;;;;4.47;4.30;;;;;;;;;;5068692;28;20490;-88
2023/08/23 12:24:16;;;;;;;6.73;3.93;;;;;;;;;;5066818;28;20480;-84
2023/08/23 12:26:42;;;;;;;4.10;3.90;;;;;;;;;;5056258;28;20441;-83
2023/08/23 12:29:08;;;;;;;4.30;3.93;;;;;;;;;;5060822;28;20455;-84
2023/08/23 12:31:34;;;;;;;4.03;3.83;;;;;;;;;;5050927;28;20443;-82
2023/08/23 12:34:01;;;;;;;4.30;3.93;;;;;;;;;;5046290;28;20473;-82
2023/08/23 12:36:27;;;;;;;4.20;4.00;;;;;;;;;;5059073;28;20960;-82
2023/08/23 12:38:53;;;;;;;6.80;4.47;;;;;;;;;;5061591;28;20441;-82
2023/08/23 12:41:19;;;;;;;3.90;3.80;;;;;;;;;;5060655;28;20444;-81
2023/08/23 12:43:45;;;;;;;5.07;4.87;;;;;;;;;;5049149;28;20487;-82
2023/08/23 12:46:11;;;;;;;4.37;4.07;;;;;;;;;;5060450;28;20436;-83
2023/08/23 12:48:37;;;;;;;3.50;3.30;;;;;;;;;;5053920;28;20796;-84
2023/08/23 12:51:03;;;;;;;4.20;4.00;;;;;;;;;;5071175;28;20448;-85
2023/08/23 12:53:29;;;;;;;4.97;4.07;;;;;;;;;;5063062;28;20475;-82
2023/08/23 12:55:55;;;;;;;3.60;3.40;;;;;;;;;;5055346;28;20510;-83
2023/08/23 12:58:21;;;;;;;4.20;3.80;;;;;;;;;;5062357;28;20938;-83
2023/08/23 13:00:48;;;;;;;4.30;4.00;;;;;;;;;;5061490;28;20436;-82
2023/08/23 13:03:14;;;;;;;4.00;3.70;;;;;;;;;;5046739;28;20441;-81
2023/08/23 13:05:40;;;;;;;4.20;4.00;;;;;;;;;;5056488;28;21408;-82
2023/08/23 13:08:06;;;;;;;3.50;3.30;;;;;;;;;;5052920;28;20444;-81
2023/08/23 13:10:43;;;;;;;;;;;;;;;;;;;;;
2023/08/23 13:13:09;;;;;;;3.33;2.97;;;;;;;;;;5051605;28;20481;-82
2023/08/23 13:15:35;;;;;;;2.90;2.80;;;;;;;;;;5042541;28;20431;-81
2023/08/23 13:18:03;;;;;;;3.20;3.10;;;;;;;;;;5050589;28;20438;-82
2023/08/23 13:20:29;;;;;;;2.97;2.87;;;;;;;;;;5051242;28;20532;-82
2023/08/23 13:22:56;;;;;;;3.40;3.30;;;;;;;;;;5050460;28;20947;-83
2023/08/23 13:25:22;;;;;;;3.20;3.10;;;;;;;;;;5062053;28;20883;-83
2023/08/23 13:27:48;;;;;;;3.10;2.80;;;;;;;;;;5056045;28;20465;-85
2023/08/23 13:30:14;;;;;;;4.07;2.97;;;;;;;;;;5056986;28;20491;-84
2023/08/23 13:32:40;;;;;;;3.23;3.10;;;;;;;;;;5053878;28;20870;-84
2023/08/23 13:35:09;;;;;;;3.30;3.20;;;;;;;;;;5048714;28;20453;-83
2023/08/23 13:37:35;;;;;;;2.70;2.60;;;;;;;;;;5045648;28;20442;-85
2023/08/23 13:40:03;;;;;;;3.47;3.37;;;;;;;;;;5053340;28;20447;-85
2023/08/23 13:42:29;;;;;;;2.60;2.50;;;;;;;;;;5079812;28;20434;-85
2023/08/23 13:44:55;;;;;;;3.10;2.90;;;;;;;;;;5052768;28;20463;-84
2023/08/23 13:47:21;;;;;;;3.30;3.10;;;;;;;;;;5058003;28;20428;-82
2023/08/23 13:49:47;;;;;;;3.53;2.77;;;;;;;;;;5049843;28;20760;-85
2023/08/23 13:52:13;;;;;;;3.40;3.30;;;;;;;;;;5054393;28;20899;-84
2023/08/23 13:54:40;;;;;;;3.47;3.27;;;;;;;;;;5047591;28;20495;-85
2023/08/23 13:57:06;;;;;;;5.33;3.33;;;;;;;;;;5045867;28;20809;-84
2023/08/23 13:59:35;;;;;;;4.03;3.00;;;;;;;;;;5053966;28;20813;-83
2023/08/23 14:02:02;;;;;;;3.60;3.40;;;;;;;;;;5050613;28;20492;-83
2023/08/23 14:04:28;;;;;;;6.17;4.07;;;;;;;;;;5055551;28;20556;-83
2023/08/23 14:06:55;;;;;;;3.90;3.60;;;;;;;;;;5056219;28;20453;-84
2023/08/23 14:09:21;;;;;;;4.90;2.97;;;;;;;;;;5053871;28;21054;-84
2023/08/23 14:11:53;;;;;;;3.80;3.50;;;;;;;;;;5054427;28;20436;-84
2023/08/23 14:14:20;;;;;;;3.20;2.90;;;;;;;;;;5050068;28;20472;-84
2023/08/23 14:16:46;;;;;;;3.77;3.67;;;;;;;;;;5057727;28;20484;-84
2023/08/23 14:19:12;;;;;;;3.10;3.00;;;;;;;;;;5055474;28;20468;-85
2023/08/23 14:21:38;;;;;;;4.03;3.50;;;;;;;;;;5048115;28;20464;-84
2023/08/23 14:24:04;;;;;;;2.43;2.33;;;;;;;;;;5045688;28;21141;-83
2023/08/23 14:26:30;;;;;;;2.77;2.77;;;;;;;;;;5052386;28;20429;-83
2023/08/23 14:28:56;;;;;;;3.33;3.00;;;;;;;;;;5054533;28;20869;-81
2023/08/23 14:31:22;;;;;;;3.63;2.80;;;;;;;;;;5053947;28;20472;-81
2023/08/23 14:33:48;;;;;;;2.93;2.83;;;;;;;;;;5051536;28;21239;-79
2023/08/23 14:36:14;;;;;;;3.43;3.33;;;;;;;;;;5045723;28;20469;-79
2023/08/23 14:38:40;;;;;;;3.73;3.40;;;;;;;;;;5055135;28;20981;-79